Portada
METAR-TAF:

METAR-TAF

Aeroports :

Saint-Louis, Senegal

latitud: 16-03N, longitud: 016-27W, altitud: 4 m

Observació

L'informe es va fer fa 1 hora i 0 minuts, a les 12:00 UTC
Vent 6 kt del Est, variant entre Nord i Sud-Est
Temperatura 35°C
Humitat 20%
Pressió 1013 hPa
Visibilitat 10 km o més
sense núvols per sota de 1500 mi sense presència de cumulonimbus.

METAR: GOSS 281200Z 08006KT 350V130 CAVOK 35/09 Q1013

Hora: 13:00 (13:00 UTC)

Pronòstic

L'informe es va fer fa 1 hora i 38 minuts, a les 11:22 UTC
Pronòstic vàlid del 28 a les 12 UTC al 29 a les 12 UTC
Vent 8 kt del Est/Nord-Est
Visibilitat 10 km o més
sense núvols per sota de 1500 mi sense presència de cumulonimbus.
Evolucionant progressivament
l' 28 a les 16 UTC al 28 a les 18 UTC
Vent 12 kt del Nord

TAF: GOSS 281122Z 2812/2912 07008KT CAVOK BECMG 2816/2818 36012KT

Observacions i pronòstics meteorològics de més de 4000 aeroports (METAR i TAF).

Les estacions disponibles són els punts grocs i vermells al mapa.

Posi el ratolí al punt desitjat per veure el nom de l'estació.

Feu clic per veure les observacions i els pronòstics meteorològics.

Per canviar el mapa: feu clic els botons verds amb una creu de color negre per apropar; al botó verd amb un guió per allunyar la imatge; o en les fletxes verdes per a mapes adjacents.


METAR-TAF: